Latest Weather Observations for Cocos Island

IDW60801

Issued at 9:14 am WST Monday 30 November 2020 (issued every 10 minutes, with the page automatically refreshed every 10 minutes)

About weather observations | Map of weather stations | Latest weather observations for WA | Other Formats
Station Details ID: 200284 Name: COCOS ISLAND AIRPORT Lat: -12.19 Lon: 96.83 Height: 3.0 m
Data from the previous 72 hours. | See also: Recent months at Cocos Island
Date/Time
WST
Temp
°C
App
Temp
°C
Dew
Point
°C
Rel
Hum
%
Delta-T
°C
Wind Press
QNH
hPa
Press
MSL
hPa
Rain since
9am
mm
Dir  Spd
km/h
Gust
km/h
Spd
kts
Gust
kts
30/09:00am 27.4 28.9 23.0 77 3.0 ESE 20 33 11 18 1010.4 1010.4 0.0
30/08:30am 27.2 28.0 23.2 79 2.7 E 24 37 13 20 1010.2 1010.2 0.0
30/08:00am 27.0 28.6 23.3 80 2.5 ESE 20 33 11 18 1010.0 1010.0 0.0
30/07:30am 26.7 29.1 23.6 83 2.1 ESE 17 28 9 15 1009.7 1009.7 0.0
30/07:00am 26.6 28.5 23.5 83 2.1 ESE 19 32 10 17 1009.3 1009.3 0.0
30/06:30am 26.7 28.1 23.6 83 2.1 ESE 22 37 12 20 1009.2 1009.2 0.0
30/06:00am 26.6 27.7 23.7 84 2.0 E 24 35 13 19 1009.0 1009.0 0.0
30/05:30am 26.6 28.1 23.7 84 2.0 E 22 35 12 19 1008.7 1008.7 0.0
30/05:00am 26.7 29.1 24.2 86 1.7 ESE 19 30 10 16 1008.8 1008.8 0.0
30/04:30am 26.6 29.2 23.9 85 1.9 ESE 17 28 9 15 1008.9 1008.9 0.0
30/04:00am 26.8 29.0 23.9 84 2.0 ESE 19 28 10 15 1009.1 1009.1 0.0
30/03:30am 26.9 28.7 24.2 85 1.9 E 22 30 12 16 1009.4 1009.4 0.0
30/03:00am 27.0 28.5 24.3 85 1.9 E 24 33 13 18 1009.6 1009.6 0.0
30/02:30am 27.0 28.9 23.7 82 2.3 ESE 20 28 11 15 1009.9 1009.9 0.0
30/02:00am 27.1 28.0 24.0 83 2.1 E 26 33 14 18 1010.2 1010.2 0.0
30/01:30am 27.1 28.0 23.3 80 2.6 E 24 33 13 18 1010.5 1010.5 0.0
30/01:00am 27.1 29.7 24.6 86 1.7 ESE 19 32 10 17 1010.9 1010.9 0.0
30/12:30am 27.1 28.5 24.2 84 2.0 E 24 35 13 19 1011.1 1011.1 0.0
30/12:00am 27.3 29.5 24.2 83 2.1 ESE 20 30 11 16 1011.1 1011.1 0.0
 
Date/Time
WST
Temp
°C
App
Temp
°C
Dew
Point
°C
Rel
Hum
%
Delta-T
°C
Wind Press
QNH
hPa
Press
MSL
hPa
Rain since
9am
mm
Dir  Spd
km/h
Gust
km/h
Spd
kts
Gust
kts
29/11:30pm 27.4 28.7 24.1 82 2.3 E 24 33 13 18 1011.1 1011.1 0.0
29/11:00pm 27.5 27.9 24.4 83 2.2 E 30 37 16 20 1011.0 1011.0 0.0
29/10:30pm 27.4 28.4 24.1 82 2.3 E 26 35 14 19 1010.8 1010.8 0.0
29/10:00pm 27.4 28.5 24.3 83 2.1 E 26 33 14 18 1010.6 1010.6 0.0
29/09:30pm 27.5 28.8 24.6 84 2.0 E 26 33 14 18 1010.2 1010.2 0.0
29/09:00pm 27.4 28.0 24.1 82 2.3 E 28 39 15 21 1010.0 1010.0 0.0
29/08:30pm 27.5 27.6 24.6 84 2.0 E 32 35 17 19 1009.5 1009.5 0.0
29/08:06pm 27.4 28.4 25.4 89 1.4 E 30 35 16 19 1009.1 1009.1 0.0
29/08:00pm 27.2 28.1 25.2 89 1.4 E 30 35 16 19 1009.0 1009.0 0.0
29/07:30pm 27.2 28.5 25.2 89 1.4 E 28 33 15 18 1008.5 1008.5 0.0
29/07:24pm 27.3 29.1 25.5 90 1.3 E 26 32 14 17 1008.4 1008.4 0.0
29/07:00pm 27.3 29.1 25.5 90 1.3 E 26 33 14 18 1008.2 1008.2 0.0
29/06:50pm 27.2 28.8 25.2 89 1.4 ENE 26 32 14 17 1008.1 1008.1 0.0
29/06:30pm 27.4 28.8 25.4 89 1.4 E 28 32 15 17 1008.0 1008.0 0.0
29/06:00pm 27.6 29.1 25.0 86 1.8 E 26 32 14 17 1007.8 1007.8 0.0
29/05:46pm 27.8 29.6 25.4 87 1.7 E 26 32 14 17 1007.8 1007.8 0.0
29/05:30pm 27.9 30.1 25.5 87 1.7 ENE 24 28 13 15 1007.9 1007.9 0.0
29/05:00pm 28.1 30.4 25.1 84 2.1 ENE 22 28 12 15 1007.9 1007.9 0.0
29/04:49pm 28.1 30.8 25.1 84 2.1 ENE 20 30 11 16 1008.1 1008.1 0.0
29/04:30pm 27.9 30.2 25.1 85 2.0 E 22 28 12 15 1008.3 1008.3 0.0
29/04:25pm 28.1 30.4 25.1 84 2.1 E 22 28 12 15 1008.3 1008.3 0.0
29/04:00pm 28.6 30.4 25.4 83 2.3 E 26 30 14 16 1008.4 1008.4 0.0
29/03:30pm 28.9 30.2 25.3 81 2.5 E 28 33 15 18 1008.6 1008.6 0.0
29/03:00pm 28.3 29.6 25.3 84 2.1 E 28 33 15 18 1008.9 1008.9 0.0
29/02:30pm 28.9 29.5 25.3 81 2.5 E 32 37 17 20 1009.4 1009.4 0.0
29/02:00pm 28.8 29.9 25.0 80 2.7 ENE 28 32 15 17 1009.7 1009.7 0.0
29/01:30pm 27.9 29.1 25.1 85 2.0 E 28 32 15 17 1010.0 1010.0 0.0
29/01:00pm 27.6 28.4 25.0 86 1.8 E 30 33 16 18 1010.3 1010.3 0.0
29/12:34pm 27.2 27.4 24.7 86 1.7 E 32 37 17 20 1010.6 1010.6 0.0
29/12:30pm 27.3 27.6 24.9 87 1.7 E 32 35 17 19 1010.6 1010.6 0.0
29/12:16pm 27.5 27.9 25.1 87 1.7 E 32 41 17 22 1010.7 1010.7 0.0
29/12:00pm 27.7 28.5 25.1 86 1.8 ENE 30 37 16 20 1010.7 1010.7 0.0
29/11:40am 27.3 29.0 24.7 86 1.8 E 24 30 13 16 1010.8 1010.8 0.0
29/11:30am 27.8 29.3 25.0 85 2.0 E 26 30 14 16 1010.9 1010.9 0.0
29/11:00am 27.5 29.5 25.1 87 1.7 E 24 30 13 16 1010.9 1010.9 0.0
29/10:53am 27.3 29.3 25.1 88 1.5 E 24 30 13 16 1010.9 1010.9 0.0
29/10:30am 27.1 28.9 24.9 88 1.5 E 24 28 13 15 1010.8 1010.8 0.0
29/10:17am 26.8 29.5 24.1 85 1.9 ESE 17 26 9 14 1010.6 1010.6 0.0
29/10:00am 26.8 29.9 24.8 89 1.4 ESE 17 28 9 15 1010.5 1010.5 0.0
29/09:46am 27.2 29.7 24.8 87 1.7 E 20 24 11 13 1010.5 1010.5 0.0
29/09:30am 27.1 29.8 25.1 89 1.4 E 20 24 11 13 1010.4 1010.4 0.0
29/09:00am 26.6 28.9 24.1 86 1.7 E 19 24 10 13 1010.1 1010.1 0.0
29/08:30am 26.6 29.7 24.8 90 1.3 E 17 24 9 13 1009.9 1009.9 0.0
29/08:00am 25.9 28.5 23.9 89 1.4 E 17 20 9 11 1009.7 1009.7 0.0
29/07:30am 25.8 28.5 24.8 94 0.7 E 19 22 10 12 1009.3 1009.3 0.0
29/07:00am 25.8 28.2 24.6 93 0.8 ENE 20 24 11 13 1008.8 1008.8 0.0
29/06:30am 25.7 28.4 24.7 94 0.7 E 19 22 10 12 1008.3 1008.3 0.0
29/06:00am 25.7 27.5 24.8 95 0.6 E 24 26 13 14 1008.3 1008.3 0.0
29/05:47am 25.7 27.5 24.8 95 0.6 E 24 28 13 15 1008.4 1008.4 0.0
29/05:30am 25.8 27.3 24.9 95 0.6 E 26 30 14 16 1008.3 1008.3 0.0
29/05:00am 25.8 27.3 24.9 95 0.6 E 26 32 14 17 1008.5 1008.5 0.0
29/04:34am 25.9 27.5 25.2 96 0.5 E 26 32 14 17 1008.5 1008.5 0.0
29/04:30am 25.9 27.2 25.2 96 0.5 E 28 32 15 17 1008.5 1008.5 0.0
29/04:00am 25.9 27.2 25.2 96 0.5 E 28 32 15 17 1008.5 1008.5 0.0
29/03:30am 25.9 27.2 25.2 96 0.5 E 28 32 15 17 1008.5 1008.5 0.0
29/03:00am 25.7 29.2 25.4 98 0.2 E 17 22 9 12 1008.9 1008.9 0.0
29/02:30am 25.7 28.5 25.2 97 0.3 E 20 24 11 13 1009.5 1009.5 0.0
29/02:00am 25.6 30.0 25.1 97 0.3 E 11 17 6 9 1010.0 1010.0 0.0
29/01:30am 25.2 29.5 24.3 95 0.6 ESE 9 19 5 10 1010.2 1010.2 0.0
29/01:00am 25.2 28.6 24.7 97 0.3 ESE 15 26 8 14 1010.6 1010.6 0.0
29/12:30am 25.4 27.2 24.9 97 0.3 E 24 32 13 17 1010.7 1010.7 0.0
29/12:00am 25.9 27.7 25.4 97 0.4 E 26 32 14 17 1010.9 1010.9 0.0
 
Date/Time
WST
Temp
°C
App
Temp
°C
Dew
Point
°C
Rel
Hum
%
Delta-T
°C
Wind Press
QNH
hPa
Press
MSL
hPa
Rain since
9am
mm
Dir  Spd
km/h
Gust
km/h
Spd
kts
Gust
kts
28/11:30pm 25.9 28.0 25.4 97 0.3 E 24 28 13 15 1010.8 1010.8 0.0
28/11:00pm 26.6 30.0 24.6 89 1.4 ENE 15 20 8 11 1010.9 1010.9 0.0
28/10:30pm 26.6 31.3 25.0 91 1.1 ENE 9 15 5 8 1010.8 1010.8 0.0
28/10:00pm 26.4 31.1 25.0 92 1.0 NE 9 13 5 7 1010.8 1010.8 0.0
28/09:30pm 26.4 31.0 24.8 91 1.1 NE 9 13 5 7 1010.5 1010.5 0.0
28/09:17pm 26.4 31.0 24.8 91 1.1 NE 9 15 5 8 1010.4 1010.4 0.0
28/09:00pm 26.6 30.7 25.2 92 1.0 NNE 13 15 7 8 1010.2 1010.2 0.0
28/08:42pm 26.6 31.5 25.2 92 1.0 NNE 9 13 5 7 1010.0 1010.0 0.0
28/08:37pm 26.6 31.5 25.2 92 1.0 NE 9 15 5 8 1010.0 1010.0 0.0
28/08:30pm 26.6 31.0 25.0 91 1.1 NE 11 17 6 9 1009.9 1009.9 0.0
28/08:21pm 26.6 31.0 25.0 91 1.1 NNE 11 15 6 8 1009.8 1009.8 0.0
28/08:00pm 26.5 30.8 24.9 91 1.1 NE 11 15 6 8 1009.4 1009.4 0.0
28/07:30pm 26.6 30.8 24.8 90 1.3 NE 11 15 6 8 1009.2 1009.2 0.0
28/07:00pm 26.7 30.5 24.7 89 1.4 NNE 13 15 7 8 1008.8 1008.8 0.0
28/06:30pm 27.0 29.7 24.8 88 1.5 NNE 19 24 10 13 1008.5 1008.5 0.0
28/06:00pm 27.1 29.3 24.9 88 1.5 NNE 22 26 12 14 1008.6 1008.6 0.0
28/05:34pm 27.5 30.5 25.3 88 1.5 NNE 19 26 10 14 1008.5 1008.5 0.0
28/05:30pm 27.3 30.3 25.3 89 1.4 NNE 19 24 10 13 1008.5 1008.5 0.0
28/05:06pm 27.0 29.3 25.0 89 1.4 NNE 22 28 12 15 1008.4 1008.4 0.0
28/05:00pm 27.1 29.3 24.9 88 1.5 NNE 22 28 12 15 1008.4 1008.4 0.0
28/04:30pm 26.7 29.3 24.9 90 1.3 NNE 20 26 11 14 1008.6 1008.6 0.0
28/04:00pm 27.1 29.2 24.7 87 1.7 NNE 22 28 12 15 1009.0 1009.0 0.0
28/03:30pm 27.1 29.5 24.6 86 1.7 NNE 20 26 11 14 1009.1 1009.1 0.0
28/03:09pm 27.9 30.7 25.3 86 1.8 NE 20 26 11 14 1009.3 1009.3 0.0
28/03:00pm 28.0 30.9 25.4 86 1.8 NE 20 26 11 14 1009.5 1009.5 0.0
28/02:30pm 27.7 30.6 25.1 86 1.8 NE 19 26 10 14 1010.0 1010.0 0.0
28/02:23pm 27.5 30.3 24.9 86 1.8 NE 19 24 10 13 1010.0 1010.0 0.0
28/02:00pm 27.6 30.8 25.6 89 1.4 NE 19 26 10 14 1010.4 1010.4 0.0
28/01:30pm 26.9 29.5 24.9 89 1.4 NE 20 30 11 16 1010.8 1010.8 0.0
28/01:23pm 27.1 29.8 25.1 89 1.4 NE 20 28 11 15 1010.8 1010.8 0.0
28/01:04pm 27.1 30.1 25.3 90 1.3 NE 19 28 10 15 1011.0 1011.0 0.0
28/01:00pm 26.9 29.8 25.1 90 1.3 NE 19 26 10 14 1011.0 1011.0 0.0
28/12:33pm 26.9 30.1 24.9 89 1.4 ENE 17 26 9 14 1011.2 1011.2 0.0
28/12:30pm 27.1 31.1 25.1 89 1.4 NE 13 24 7 13 1011.2 1011.2 0.0
28/12:00pm 26.5 30.1 24.3 88 1.5 NE 13 20 7 11 1011.4 1011.4 0.0
28/11:30am 26.3 28.5 24.2 88 1.4 ENE 20 28 11 15 1011.4 1011.4 0.0
28/11:00am 26.2 29.4 24.4 90 1.2 ENE 15 24 8 13 1011.5 1011.5 14.6
28/10:30am 25.7 26.7 24.8 95 0.6 ENE 28 33 15 18 1011.1 1011.1 14.6
28/10:01am 25.5 25.8 24.8 96 0.5 ENE 32 35 17 19 1010.7 1010.7 14.6
28/10:00am 25.5 25.8 24.8 96 0.5 ENE 32 35 17 19 1010.6 1010.6 14.6
28/09:30am 25.4 26.7 25.2 99 0.1 ENE 28 33 15 18 1010.6 1010.6 14.6
28/09:00am 25.5 26.8 25.3 99 0.1 ENE 28 33 15 18 1010.5 1010.5 14.6
28/08:30am 25.4 27.0 25.2 99 0.1 ENE 26 30 14 16 1010.5 1010.5 14.6
28/08:00am 25.2 28.4 25.0 99 0.1 ENE 17 26 9 14 1010.5 1010.5 14.6
28/07:30am 24.9 28.7 24.7 99 0.1 ENE 13 19 7 10 1010.1 1010.1 14.6
28/07:00am 24.5 28.1 24.3 99 0.1 ENE 13 15 7 8 1009.7 1009.7 14.6
28/06:30am 24.1 27.8 23.9 99 0.1 ENE 11 15 6 8 1009.5 1009.5 14.6
28/06:00am 23.8 29.4 23.6 99 0.1 CALM 0 0 0 0 1009.3 1009.3 14.6
28/05:30am 23.5 28.9 23.3 99 0.1 CALM 0 0 0 0 1009.2 1009.2 13.6
28/05:00am 23.3 28.6 23.1 99 0.1 CALM 0 0 0 0 1009.4 1009.4 11.2
28/04:30am 23.4 25.6 23.2 99 0.1 NW 17 24 9 13 1009.8 1009.8 4.4
28/04:27am 23.3 25.0 23.1 99 0.1 WNW 19 24 10 13 1009.7 1009.7 4.4
28/04:05am 23.8 24.6 23.1 96 0.5 NNW 24 33 13 18 1009.7 1009.7 4.2
28/04:04am 23.8 24.5 23.0 95 0.5 NNW 24 33 13 18 1009.7 1009.7 4.2
28/04:00am 24.8 26.7 23.8 94 0.7 NNE 20 28 11 15 1009.7 1009.7 4.0
28/03:30am 26.6 28.4 25.4 93 0.8 ENE 26 35 14 19 1009.7 1009.7 4.0
28/03:20am 26.3 27.7 25.4 95 0.6 E 28 35 15 19 1009.9 1009.9 4.0
28/03:00am 26.3 27.4 24.9 92 1.0 ENE 28 33 15 18 1010.0 1010.0 3.8
28/02:30am 26.8 28.3 25.0 90 1.3 ENE 26 32 14 17 1010.4 1010.4 3.0
28/02:29am 26.8 28.4 25.2 91 1.1 ENE 26 33 14 18 1010.4 1010.4 3.0
28/02:15am 27.0 28.4 25.4 91 1.1 ENE 28 35 15 19 1010.6 1010.6 3.0
28/02:00am 27.0 28.9 25.6 92 1.0 ENE 26 32 14 17 1010.8 1010.8 3.0
28/01:30am 27.0 28.5 25.6 92 1.0 ENE 28 32 15 17 1011.1 1011.1 3.0
28/01:23am 27.0 28.5 25.6 92 1.0 ENE 28 33 15 18 1011.2 1011.2 3.0
28/01:00am 27.0 28.1 25.6 92 1.0 ENE 30 33 16 18 1011.5 1011.5 3.0
28/12:33am 27.1 29.1 25.7 92 1.0 ENE 26 33 14 18 1011.8 1011.8 3.0
28/12:30am 27.0 28.5 25.6 92 1.0 ENE 28 33 15 18 1011.8 1011.8 3.0
28/12:27am 27.0 28.5 25.6 92 1.0 ENE 28 33 15 18 1011.8 1011.8 3.0
28/12:00am 26.8 28.9 25.9 95 0.6 E 26 30 14 16 1011.8 1011.8 3.0
 
Date/Time
WST
Temp
°C
App
Temp
°C
Dew
Point
°C
Rel
Hum
%
Delta-T
°C
Wind Press
QNH
hPa
Press
MSL
hPa
Rain since
9am
mm
Dir  Spd
km/h
Gust
km/h
Spd
kts
Gust
kts
27/11:58pm 26.7 29.1 25.8 95 0.6 E 24 30 13 16 1011.8 1011.8 3.0
27/11:30pm 26.6 29.1 25.9 96 0.5 E 24 26 13 14 1011.8 1011.8 3.0
27/11:00pm 26.6 29.2 26.1 97 0.4 E 24 28 13 15 1011.8 1011.8 3.0
27/10:30pm 26.2 28.9 25.7 97 0.4 E 22 30 12 16 1011.8 1011.8 3.0
27/10:28pm 26.3 29.5 25.8 97 0.4 E 20 30 11 16 1011.8 1011.8 3.0
27/10:26pm 26.1 29.1 25.6 97 0.4 E 20 30 11 16 1011.8 1011.8 3.0
27/10:12pm 26.4 28.1 25.9 97 0.4 E 28 35 15 19 1011.7 1011.7 3.0
27/10:00pm 26.5 29.7 25.6 95 0.6 ENE 19 24 10 13 1011.8 1011.8 2.8
27/09:40pm 26.7 30.6 25.5 93 0.8 NE 15 24 8 13 1012.0 1012.0 1.4
27/09:30pm 26.8 29.9 25.4 92 1.0 NE 19 28 10 15 1011.9 1011.9 1.2
27/09:02pm 26.8 29.9 25.4 92 1.0 NE 19 26 10 14 1011.5 1011.5 1.2
27/09:00pm 26.9 29.9 25.3 91 1.1 NE 19 26 10 14 1011.4 1011.4 1.2
27/08:38pm 26.8 30.5 25.8 94 0.7 ENE 17 24 9 13 1011.1 1011.1 1.2
27/08:30pm 26.8 30.0 25.6 93 0.8 ENE 19 26 10 14 1010.9 1010.9 1.2
27/08:00pm 26.7 29.4 25.7 94 0.7 ENE 22 32 12 17 1010.4 1010.4 1.2
27/07:30pm 26.5 29.1 24.9 91 1.1 NE 20 30 11 16 1009.9 1009.9 1.2
27/07:00pm 26.7 29.8 25.7 94 0.7 NE 20 30 11 16 1009.4 1009.4 1.2
27/06:48pm 26.8 28.8 25.8 94 0.7 NE 26 39 14 21 1009.2 1009.2 1.2
27/06:38pm 26.8 28.7 25.6 93 0.8 NE 26 39 14 21 1009.0 1009.0 1.2
27/06:30pm 26.8 28.9 25.4 92 1.0 NE 24 33 13 18 1008.9 1008.9 0.8
27/06:18pm 27.0 29.4 25.2 90 1.3 NE 22 37 12 20 1008.7 1008.7 0.8
27/06:15pm 27.3 29.3 25.1 88 1.5 NE 24 37 13 20 1008.7 1008.7 0.4
27/06:00pm 28.0 30.3 25.6 87 1.7 NE 24 35 13 19 1008.4 1008.4 0.0
27/05:30pm 27.9 27.8 25.1 85 2.0 ENE 35 41 19 22 1008.0 1008.0 0.0
27/05:00pm 28.2 28.1 25.2 84 2.1 ENE 35 41 19 22 1008.0 1008.0 0.0
27/04:30pm 28.2 28.8 25.4 85 2.0 ENE 32 39 17 21 1008.2 1008.2 0.0
27/04:00pm 28.3 28.4 25.5 85 2.0 ENE 35 43 19 23 1008.5 1008.5 0.0
27/03:30pm 28.5 28.2 24.9 81 2.5 ENE 35 39 19 21 1008.7 1008.7 0.0
27/03:00pm 28.7 29.5 25.9 85 2.0 ENE 33 39 18 21 1009.2 1009.2 0.0
27/02:30pm 29.2 30.8 25.8 82 2.4 ENE 28 35 15 19 1009.5 1009.5 0.0
27/02:00pm 28.9 29.1 25.1 80 2.7 ENE 33 41 18 22 1009.9 1009.9 0.0
27/01:30pm 28.4 28.2 25.0 82 2.4 ENE 35 41 19 22 1010.2 1010.2 0.0
27/01:00pm 28.7 28.6 25.7 84 2.1 E 37 44 20 24 1010.4 1010.4 0.0
27/12:30pm 28.1 27.2 25.1 84 2.1 E 39 46 21 25 1010.4 1010.4 0.0
27/12:00pm 29.5 29.1 25.9 81 2.6 E 39 44 21 24 1010.5 1010.5 0.0
27/11:30am 29.1 29.9 25.9 83 2.3 ENE 33 39 18 21 1011.2 1011.2 0.0
27/11:00am 28.3 28.9 25.3 84 2.1 E 32 37 17 20 1011.6 1011.6 0.0

Other formats

Comma delimited format used in spreadsheet applications
http://www.bom.gov.au/fwo/IDW60801/IDW60801.96996.axf

JavaScript Object Notation format (JSON) in row-major order
http://www.bom.gov.au/fwo/IDW60801/IDW60801.96996.json

Data quality

Most of these data are generated automatically and are frequently updated. Quality checks on data are not normally performed. It is possible for incorrect values to appear. Refer to information at About Latest Weather Observations and please check the disclaimer before using these data.